createdAt,value
2017-09-16T00:02:33.046Z,4.10
2017-09-16T00:05:44.532Z,3.90
2017-09-16T00:08:54.775Z,3.60
2017-09-16T00:12:05.971Z,3.37
2017-09-16T00:15:16.682Z,3.30
2017-09-16T00:18:26.838Z,3.55
2017-09-16T00:21:36.620Z,5.47
2017-09-16T00:24:46.856Z,3.10
2017-09-16T00:27:56.827Z,3.53
2017-09-16T00:31:07.557Z,4.15
2017-09-16T00:34:18.327Z,3.42
2017-09-16T00:37:28.297Z,3.35
2017-09-16T00:40:38.781Z,3.33
2017-09-16T00:43:48.871Z,3.28
2017-09-16T00:46:59.028Z,3.33
2017-09-16T00:50:09.867Z,3.85
2017-09-16T00:53:19.719Z,2.62
2017-09-16T00:56:30.384Z,3.35
2017-09-16T00:59:40.523Z,4.18
2017-09-16T01:02:50.879Z,5.00
2017-09-16T01:06:00.960Z,4.05
2017-09-16T01:09:11.083Z,5.05
2017-09-16T01:12:21.887Z,3.60
2017-09-16T01:15:32.827Z,3.83
2017-09-16T01:18:42.765Z,4.00
2017-09-16T01:21:53.018Z,4.97
2017-09-16T01:25:03.109Z,3.70
2017-09-16T01:28:13.237Z,3.90
2017-09-16T01:31:23.758Z,4.22
2017-09-16T01:34:33.794Z,3.03
2017-09-16T01:37:44.066Z,5.05
2017-09-16T01:40:54.130Z,4.37
2017-09-16T01:44:04.026Z,3.80
2017-09-16T01:47:14.264Z,3.30
2017-09-16T01:50:24.730Z,4.43
2017-09-16T01:53:35.251Z,4.95
2017-09-16T01:56:45.504Z,3.37
2017-09-16T01:59:55.853Z,4.80
2017-09-16T02:03:05.918Z,4.37
2017-09-16T02:06:16.608Z,3.45
2017-09-16T02:09:27.023Z,4.43
2017-09-16T02:12:37.199Z,4.75
2017-09-16T02:15:47.335Z,4.37
2017-09-16T02:18:57.314Z,4.80
2017-09-16T02:22:07.850Z,4.47
2017-09-16T02:25:18.335Z,4.50
2017-09-16T02:28:28.383Z,5.03
2017-09-16T02:31:38.404Z,5.10
2017-09-16T02:34:49.294Z,4.32
2017-09-16T02:37:59.605Z,4.75
2017-09-16T02:41:10.281Z,7.25
2017-09-16T02:44:20.341Z,4.40
2017-09-16T02:47:30.272Z,5.30
2017-09-16T02:50:40.920Z,4.62
2017-09-16T02:53:51.006Z,4.87
2017-09-16T02:57:00.966Z,5.03
2017-09-16T03:00:11.282Z,5.00
2017-09-16T03:03:21.941Z,4.93
2017-09-16T03:06:32.752Z,5.25
2017-09-16T03:09:43.505Z,4.40
2017-09-16T03:12:53.489Z,5.28
2017-09-16T03:16:04.292Z,3.80
2017-09-16T03:19:15.093Z,5.53
2017-09-16T03:22:25.315Z,4.47
2017-09-16T03:25:35.393Z,3.03
2017-09-16T03:28:45.476Z,5.75
2017-09-16T03:31:56.214Z,5.53
2017-09-16T03:35:07.967Z,4.85
2017-09-16T03:38:18.193Z,5.00
2017-09-16T03:41:28.658Z,6.10
2017-09-16T03:44:38.475Z,5.40
2017-09-16T03:47:48.528Z,4.30
2017-09-16T03:50:59.412Z,5.12
2017-09-16T03:54:09.924Z,5.25
2017-09-16T03:57:21.497Z,4.43
2017-09-16T04:00:32.140Z,4.20
2017-09-16T04:03:42.219Z,4.00
2017-09-16T04:06:52.984Z,4.70
2017-09-16T04:10:03.037Z,6.07
2017-09-16T04:13:12.866Z,5.00
2017-09-16T04:16:23.098Z,4.72
2017-09-16T04:19:33.334Z,5.75
2017-09-16T04:22:43.468Z,4.95
2017-09-16T04:25:53.451Z,3.72
2017-09-16T04:29:03.376Z,4.53
2017-09-16T04:32:13.783Z,5.05
2017-09-16T04:35:24.555Z,3.97
2017-09-16T04:38:35.269Z,4.80
2017-09-16T04:41:45.680Z,5.12
2017-09-16T04:44:55.962Z,3.92
2017-09-16T04:48:06.177Z,4.80
2017-09-16T04:51:16.054Z,4.80
2017-09-16T04:54:26.250Z,5.57
2017-09-16T04:57:36.511Z,7.95
2017-09-16T05:00:46.668Z,50.58
2017-09-16T05:03:56.668Z,150.45
2017-09-16T05:07:06.740Z,97.22
2017-09-16T05:10:16.862Z,555.25
2017-09-16T05:13:27.082Z,379.83
2017-09-16T05:16:37.152Z,207.35
2017-09-16T05:19:47.932Z,145.90
2017-09-16T05:22:59.352Z,97.80
2017-09-16T05:26:10.134Z,61.47
2017-09-16T05:29:20.896Z,45.40
2017-09-16T05:32:31.819Z,30.92
2017-09-16T05:35:42.409Z,21.37
2017-09-16T05:38:52.619Z,9.88
2017-09-16T05:42:02.896Z,6.10
2017-09-16T05:45:12.909Z,8.00
2017-09-16T05:48:23.212Z,8.95
2017-09-16T05:51:33.443Z,5.40
2017-09-16T05:54:43.495Z,4.62
2017-09-16T05:57:53.410Z,4.45
2017-09-16T06:01:04.127Z,5.55
2017-09-16T06:04:13.871Z,4.35
2017-09-16T06:07:24.055Z,4.60
2017-09-16T06:10:34.062Z,5.05
2017-09-16T06:13:44.340Z,5.07
2017-09-16T06:16:55.107Z,6.37
2017-09-16T06:20:06.063Z,6.40
2017-09-16T06:23:16.295Z,6.20
2017-09-16T06:26:26.378Z,5.18
2017-09-16T06:29:46.776Z,5.25
2017-09-16T06:32:57.516Z,5.30
2017-09-16T06:36:16.360Z,5.35
2017-09-16T06:39:26.836Z,7.05
2017-09-16T06:42:40.596Z,3.35
2017-09-16T06:45:51.132Z,5.22
2017-09-16T06:49:02.535Z,5.72
2017-09-16T06:52:26.960Z,5.97
2017-09-16T06:55:41.058Z,6.82
2017-09-16T06:58:51.709Z,6.25
2017-09-16T07:02:06.187Z,4.10
2017-09-16T07:05:16.207Z,4.53
2017-09-16T07:08:26.094Z,6.35
2017-09-16T07:11:42.740Z,5.45
2017-09-16T07:14:54.454Z,5.62
2017-09-16T07:18:05.802Z,5.80
2017-09-16T07:21:16.201Z,5.43
2017-09-16T07:24:30.078Z,5.85
2017-09-16T07:27:40.520Z,6.62
2017-09-16T07:30:51.528Z,6.15
2017-09-16T07:34:01.431Z,4.68
2017-09-16T07:37:15.186Z,5.53
2017-09-16T07:40:25.216Z,5.95
2017-09-16T07:43:35.323Z,7.03
2017-09-16T07:46:54.557Z,4.65
2017-09-16T07:50:04.875Z,5.70
2017-09-16T07:53:15.191Z,5.50
2017-09-16T07:56:25.651Z,4.82
2017-09-16T07:59:39.596Z,4.95
2017-09-16T08:02:49.744Z,4.32
2017-09-16T08:06:00.632Z,6.28
2017-09-16T08:09:11.647Z,5.28
2017-09-16T08:12:28.422Z,4.60
2017-09-16T08:15:39.584Z,6.78
2017-09-16T08:18:50.178Z,4.57
2017-09-16T08:22:01.259Z,4.78
2017-09-16T08:25:12.153Z,5.18
2017-09-16T08:28:28.221Z,5.15
2017-09-16T08:31:38.180Z,4.82
2017-09-16T08:34:47.980Z,5.40
2017-09-16T08:37:58.235Z,5.70
2017-09-16T08:41:08.827Z,6.07
2017-09-16T08:44:18.974Z,5.80
2017-09-16T08:47:29.003Z,5.50
2017-09-16T08:50:39.612Z,6.37
2017-09-16T08:53:50.383Z,8.48
2017-09-16T08:57:05.909Z,6.85
2017-09-16T09:00:16.059Z,5.15
2017-09-16T09:07:03.123Z,5.70
2017-09-16T09:10:14.247Z,5.47
2017-09-16T09:13:24.435Z,5.93
2017-09-16T09:16:35.020Z,5.43
2017-09-16T09:19:45.265Z,6.45
2017-09-16T09:22:55.775Z,10.50
2017-09-16T09:26:06.080Z,8.80
2017-09-16T09:29:16.121Z,13.38
2017-09-16T09:32:26.739Z,11.23
2017-09-16T09:35:36.694Z,6.87
2017-09-16T09:38:46.744Z,6.25
2017-09-16T09:41:57.461Z,7.80
2017-09-16T09:45:07.821Z,6.53
2017-09-16T09:48:17.667Z,6.70
2017-09-16T09:51:27.887Z,5.68
2017-09-16T09:54:38.314Z,11.50
2017-09-16T09:57:48.282Z,7.72
2017-09-16T10:00:58.575Z,7.82
2017-09-16T10:04:09.281Z,5.53
2017-09-16T10:07:19.736Z,8.05
2017-09-16T10:10:30.402Z,5.93
2017-09-16T10:13:40.550Z,5.45
2017-09-16T10:16:50.624Z,6.72
2017-09-16T10:20:01.012Z,7.00
2017-09-16T10:23:11.740Z,5.90
2017-09-16T10:26:25.922Z,7.70
2017-09-16T10:29:36.312Z,6.70
2017-09-16T10:32:47.333Z,5.68
2017-09-16T10:35:57.623Z,7.40
2017-09-16T10:39:08.341Z,7.20
2017-09-16T10:42:19.095Z,6.25
2017-09-16T10:45:29.790Z,7.15
2017-09-16T10:48:40.311Z,7.07
2017-09-16T10:51:50.264Z,6.85
2017-09-16T10:55:01.186Z,7.12
2017-09-16T10:58:12.687Z,7.65
2017-09-16T11:01:22.945Z,6.85
2017-09-16T11:04:32.952Z,6.12
2017-09-16T11:07:43.512Z,9.90
2017-09-16T11:10:54.079Z,6.37
2017-09-16T11:14:05.242Z,5.25
2017-09-16T11:17:15.723Z,4.85
2017-09-16T11:20:25.728Z,6.37
2017-09-16T11:23:36.358Z,5.87
2017-09-16T11:26:47.043Z,4.60
2017-09-16T11:29:57.364Z,6.50
2017-09-16T11:33:09.311Z,7.40
2017-09-16T11:36:19.731Z,5.65
2017-09-16T11:39:29.850Z,6.20
2017-09-16T11:42:39.940Z,4.93
2017-09-16T11:45:49.927Z,5.80
2017-09-16T11:48:59.763Z,5.47
2017-09-16T11:52:09.820Z,5.85
2017-09-16T11:55:19.912Z,5.53
2017-09-16T11:58:30.015Z,49.53
2017-09-16T12:01:40.336Z,30.62
2017-09-16T12:04:50.903Z,9.45
2017-09-16T12:08:01.524Z,57.97
2017-09-16T12:11:11.885Z,148.10
2017-09-16T12:14:27.508Z,28.25
2017-09-16T12:17:39.021Z,8.80
2017-09-16T12:20:49.276Z,28.12
2017-09-16T12:24:00.168Z,24.85
2017-09-16T12:27:10.131Z,25.23
2017-09-16T12:30:20.173Z,10.50
2017-09-16T12:33:31.138Z,6.10
2017-09-16T12:36:41.551Z,10.82
2017-09-16T12:39:51.558Z,15.43
2017-09-16T12:43:02.938Z,6.30
2017-09-16T12:46:14.006Z,4.97
2017-09-16T12:49:24.244Z,8.05
2017-09-16T12:52:34.941Z,5.68
2017-09-16T12:55:45.117Z,5.95
2017-09-16T12:58:56.255Z,4.40
2017-09-16T13:02:06.494Z,4.90
2017-09-16T13:05:16.356Z,4.03
2017-09-16T13:08:26.619Z,4.15
2017-09-16T13:11:36.486Z,4.00
2017-09-16T13:14:46.622Z,4.20
2017-09-16T13:17:58.058Z,3.60
2017-09-16T13:21:07.940Z,3.80
2017-09-16T13:24:18.023Z,3.92
2017-09-16T13:27:28.646Z,5.25
2017-09-16T13:30:38.426Z,3.42
2017-09-16T13:33:48.807Z,3.53
2017-09-16T13:36:59.649Z,3.47
2017-09-16T13:40:09.852Z,3.10
2017-09-16T13:43:20.382Z,3.45
2017-09-16T13:46:30.872Z,3.05
2017-09-16T13:49:40.683Z,4.12
2017-09-16T13:52:51.007Z,4.82
2017-09-16T13:56:01.236Z,4.35
2017-09-16T13:59:11.166Z,4.30
2017-09-16T14:02:22.058Z,5.25
2017-09-16T14:05:32.167Z,3.75
2017-09-16T14:08:42.225Z,2.80
2017-09-16T14:11:53.122Z,3.85
2017-09-16T14:15:03.385Z,3.50
2017-09-16T14:18:14.421Z,2.72
2017-09-16T14:21:24.807Z,2.60
2017-09-16T14:24:35.444Z,3.03
2017-09-16T14:27:46.041Z,2.65
2017-09-16T14:30:56.404Z,2.75
2017-09-16T14:34:07.327Z,3.20
2017-09-16T14:37:17.802Z,2.53
2017-09-16T14:40:27.972Z,2.60
2017-09-16T14:43:38.447Z,2.60
2017-09-16T14:46:48.635Z,2.62
2017-09-16T14:49:58.882Z,3.45
2017-09-16T14:53:08.755Z,3.50
2017-09-16T14:56:19.212Z,2.60
2017-09-16T14:59:29.217Z,6.57
2017-09-16T15:02:39.693Z,4.45
2017-09-16T15:05:49.665Z,3.58
2017-09-16T15:08:59.734Z,3.25
2017-09-16T15:12:10.439Z,3.45
2017-09-16T15:15:21.705Z,3.15
2017-09-16T15:18:31.792Z,3.50
2017-09-16T15:21:42.543Z,4.35
2017-09-16T15:24:53.990Z,4.00
2017-09-16T15:28:04.383Z,3.70
2017-09-16T15:31:14.766Z,3.67
2017-09-16T15:34:24.769Z,3.53
2017-09-16T15:37:35.240Z,2.50
2017-09-16T15:40:45.772Z,3.08
2017-09-16T15:43:56.122Z,3.00
2017-09-16T15:47:06.548Z,3.40
2017-09-16T15:50:16.581Z,4.32
2017-09-16T15:53:28.511Z,3.55
2017-09-16T15:56:38.815Z,3.40
2017-09-16T15:59:48.924Z,3.75
2017-09-16T16:02:59.782Z,4.47
2017-09-16T16:06:10.107Z,10.25
2017-09-16T16:09:20.416Z,5.45
2017-09-16T16:12:30.750Z,14.00
2017-09-16T16:15:40.869Z,13.82
2017-09-16T16:18:51.489Z,4.47
2017-09-16T16:22:01.592Z,6.07
2017-09-16T16:25:12.372Z,4.57
2017-09-16T16:28:23.167Z,3.58
2017-09-16T16:31:34.678Z,3.65
2017-09-16T16:34:45.138Z,3.33
2017-09-16T16:37:55.131Z,3.90
2017-09-16T16:41:06.145Z,4.45
2017-09-16T16:44:16.241Z,2.62
2017-09-16T16:47:26.808Z,4.03
2017-09-16T16:50:36.874Z,3.85
2017-09-16T16:53:47.507Z,2.90
2017-09-16T16:56:57.417Z,3.35
2017-09-16T17:00:07.336Z,4.25
2017-09-16T17:03:17.653Z,5.65
2017-09-16T17:06:27.758Z,4.45
2017-09-16T17:09:38.202Z,4.07
2017-09-16T17:12:48.101Z,5.07
2017-09-16T17:15:58.613Z,4.75
2017-09-16T17:19:09.428Z,4.47
2017-09-16T17:22:19.550Z,4.40
2017-09-16T17:25:29.473Z,4.65
2017-09-16T17:28:41.012Z,3.60
2017-09-16T17:31:51.366Z,4.50
2017-09-16T17:35:03.179Z,4.55
2017-09-16T17:38:13.344Z,5.00
2017-09-16T17:41:24.342Z,3.78
2017-09-16T17:44:35.128Z,3.45
2017-09-16T17:47:45.737Z,4.50
2017-09-16T17:50:55.669Z,2.80
2017-09-16T17:54:05.546Z,6.12
2017-09-16T17:57:16.017Z,3.37
2017-09-16T18:00:26.633Z,5.80
2017-09-16T18:03:37.783Z,4.55
2017-09-16T18:06:48.211Z,4.00
2017-09-16T18:09:58.134Z,4.57
2017-09-16T18:13:08.526Z,4.30
2017-09-16T18:16:18.617Z,4.78
2017-09-16T18:19:29.329Z,5.12
2017-09-16T18:22:39.439Z,5.45
2017-09-16T18:25:49.694Z,4.95
2017-09-16T18:28:59.558Z,4.87
2017-09-16T18:32:09.740Z,4.18
2017-09-16T18:35:19.706Z,4.55
2017-09-16T18:38:29.750Z,5.05
2017-09-16T18:41:40.214Z,4.57
2017-09-16T18:44:50.133Z,6.90
2017-09-16T18:48:00.675Z,4.55
2017-09-16T18:51:10.876Z,4.35
2017-09-16T18:54:22.377Z,9.60
2017-09-16T18:57:32.998Z,4.70
2017-09-16T19:00:43.081Z,4.15
2017-09-16T19:03:53.926Z,4.07
2017-09-16T19:07:04.404Z,4.95
2017-09-16T19:10:14.776Z,4.70
2017-09-16T19:13:26.164Z,3.53
2017-09-16T19:16:36.363Z,4.12
2017-09-16T19:19:47.226Z,4.37
2017-09-16T19:22:57.902Z,4.43
2017-09-16T19:26:08.739Z,5.30
2017-09-16T19:29:18.556Z,3.72
2017-09-16T19:32:28.440Z,4.25
2017-09-16T19:35:38.869Z,4.40
2017-09-16T19:38:48.805Z,4.68
2017-09-16T19:41:58.834Z,6.30
2017-09-16T19:45:09.774Z,5.25
2017-09-16T19:48:19.807Z,4.18
2017-09-16T19:51:30.089Z,4.62
2017-09-16T19:54:40.210Z,6.45
2017-09-16T19:57:50.882Z,4.82
2017-09-16T20:01:01.516Z,4.07
2017-09-16T20:04:11.592Z,4.03
2017-09-16T20:07:21.466Z,5.55
2017-09-16T20:10:33.036Z,4.72
2017-09-16T20:13:43.146Z,5.97
2017-09-16T20:16:53.295Z,5.25
2017-09-16T20:20:03.570Z,5.05
2017-09-16T20:23:13.985Z,7.10
2017-09-16T20:26:24.612Z,4.22
2017-09-16T20:29:34.872Z,4.60
2017-09-16T20:32:45.177Z,4.90
2017-09-16T20:35:57.839Z,5.47
2017-09-16T20:39:07.915Z,5.72
2017-09-16T20:42:17.909Z,5.18
2017-09-16T20:45:28.040Z,6.05
2017-09-16T20:48:37.884Z,5.97
2017-09-16T20:51:48.043Z,6.18
2017-09-16T20:54:58.291Z,7.62
2017-09-16T20:58:08.385Z,4.60
2017-09-16T21:01:19.074Z,6.15
2017-09-16T21:04:29.981Z,6.05
2017-09-16T21:07:40.084Z,4.57
2017-09-16T21:10:50.371Z,4.10
2017-09-16T21:14:00.872Z,6.43
2017-09-16T21:17:11.434Z,6.28
2017-09-16T21:20:21.825Z,6.40
2017-09-16T21:23:32.484Z,4.07
2017-09-16T21:26:43.611Z,4.65
2017-09-16T21:29:54.185Z,4.37
2017-09-16T21:33:04.351Z,10.93
2017-09-16T21:36:14.631Z,6.20
2017-09-16T21:39:25.219Z,5.97
2017-09-16T21:42:35.260Z,7.62
2017-09-16T21:45:45.256Z,6.70
2017-09-16T21:48:55.284Z,5.47
2017-09-16T21:52:05.110Z,5.43
2017-09-16T21:55:15.273Z,5.37
2017-09-16T21:58:25.402Z,6.22
2017-09-16T22:01:34.982Z,7.10
2017-09-16T22:04:45.500Z,6.28
2017-09-16T22:07:56.376Z,5.22
2017-09-16T22:11:06.356Z,5.72
2017-09-16T22:14:16.127Z,5.60
2017-09-16T22:17:27.057Z,5.93
2017-09-16T22:20:37.467Z,5.55
2017-09-16T22:23:49.779Z,4.93
2017-09-16T22:27:01.203Z,6.97
2017-09-16T22:30:11.640Z,5.55
2017-09-16T22:33:21.496Z,6.15
2017-09-16T22:36:31.768Z,6.75
2017-09-16T22:39:41.595Z,6.53
2017-09-16T22:42:51.911Z,6.15
2017-09-16T22:46:02.928Z,5.43
2017-09-16T22:49:14.121Z,6.00
2017-09-16T22:52:24.564Z,7.00
2017-09-16T22:55:34.528Z,6.10
2017-09-16T22:58:45.158Z,6.43
2017-09-16T23:01:55.590Z,6.68
2017-09-16T23:05:05.723Z,6.75
2017-09-16T23:08:15.931Z,7.97
2017-09-16T23:11:25.955Z,8.20
2017-09-16T23:14:36.281Z,8.52
2017-09-16T23:17:46.444Z,5.87
2017-09-16T23:20:56.587Z,7.43
2017-09-16T23:24:06.723Z,5.70
2017-09-16T23:27:16.971Z,7.20
2017-09-16T23:30:27.128Z,7.57
2017-09-16T23:33:37.990Z,5.30
2017-09-16T23:36:48.156Z,7.12
2017-09-16T23:39:58.779Z,6.30
2017-09-16T23:43:09.532Z,5.60
2017-09-16T23:46:19.474Z,7.55
2017-09-16T23:49:29.962Z,6.37
2017-09-16T23:52:39.844Z,7.70
2017-09-16T23:55:50.012Z,6.70
2017-09-16T23:59:00.193Z,6.53
